createdAt,value
2022-12-25T00:01:24.225Z,-5.00
2022-12-25T00:03:51.964Z,-4.90
2022-12-25T00:06:19.123Z,-4.90
2022-12-25T00:08:46.347Z,-4.90
2022-12-25T00:11:15.020Z,-4.70
2022-12-25T00:13:42.076Z,-4.80
2022-12-25T00:16:10.399Z,-4.70
2022-12-25T00:18:37.826Z,-4.70
2022-12-25T00:21:06.205Z,-4.70
2022-12-25T00:23:35.662Z,-4.80
2022-12-25T00:26:09.322Z,-4.80
2022-12-25T00:28:36.652Z,-4.90
2022-12-25T00:31:07.974Z,-4.80
2022-12-25T00:33:35.833Z,-4.80
2022-12-25T00:36:03.194Z,-4.80
2022-12-25T00:38:30.402Z,-4.80
2022-12-25T00:40:57.239Z,-4.80
2022-12-25T00:43:24.237Z,-4.90
2022-12-25T00:45:55.502Z,-4.90
2022-12-25T00:48:22.430Z,-4.90
2022-12-25T00:50:50.058Z,-5.00
2022-12-25T00:53:17.324Z,-5.10
2022-12-25T00:55:44.143Z,-5.10
2022-12-25T00:58:11.143Z,-5.00
2022-12-25T01:00:39.532Z,-5.10
2022-12-25T01:03:06.481Z,-5.00
2022-12-25T01:05:33.416Z,-5.00
2022-12-25T01:08:00.495Z,-5.00
2022-12-25T01:10:27.309Z,-5.00
2022-12-25T01:12:54.545Z,-5.00
2022-12-25T01:15:21.645Z,-4.90
2022-12-25T01:17:48.497Z,-4.90
2022-12-25T01:20:16.412Z,-4.90
2022-12-25T01:22:44.204Z,-4.90
2022-12-25T01:25:11.995Z,-4.90
2022-12-25T01:27:39.555Z,-4.90
2022-12-25T01:30:07.159Z,-4.90
2022-12-25T01:32:34.042Z,-4.90
2022-12-25T01:35:00.934Z,-4.90
2022-12-25T01:37:27.941Z,-4.90
2022-12-25T01:39:54.800Z,-5.00
2022-12-25T01:42:23.753Z,-5.00
2022-12-25T01:44:50.644Z,-5.00
2022-12-25T01:47:18.136Z,-5.00
2022-12-25T01:49:47.875Z,-5.10
2022-12-25T01:52:21.657Z,-5.10
2022-12-25T01:54:53.923Z,-5.10
2022-12-25T01:57:25.676Z,-5.10
2022-12-25T01:59:53.164Z,-5.10
2022-12-25T02:02:20.353Z,-5.10
2022-12-25T02:04:51.147Z,-5.10
2022-12-25T02:07:20.404Z,-5.20
2022-12-25T02:09:48.051Z,-5.30
2022-12-25T02:12:29.201Z,-5.30
2022-12-25T02:15:04.603Z,-5.30
2022-12-25T02:17:32.448Z,-5.20
2022-12-25T02:20:17.970Z,-5.10
2022-12-25T02:23:01.743Z,-5.20
2022-12-25T02:25:34.497Z,-5.20
2022-12-25T02:28:06.195Z,-5.00
2022-12-25T02:30:36.280Z,-5.20
2022-12-25T02:33:25.512Z,-5.20
2022-12-25T02:35:53.612Z,-5.30
2022-12-25T02:38:33.038Z,-5.30
2022-12-25T02:41:02.269Z,-5.30
2022-12-25T02:43:52.983Z,-5.20
2022-12-25T02:46:40.749Z,-5.20
2022-12-25T02:49:29.221Z,-5.30
2022-12-25T02:52:16.015Z,-5.20
2022-12-25T02:55:07.223Z,-5.30
2022-12-25T02:57:55.533Z,-5.20
2022-12-25T03:00:40.992Z,-5.10
2022-12-25T03:03:28.724Z,-5.20
2022-12-25T03:06:15.745Z,-5.20
2022-12-25T03:08:43.303Z,-5.10
2022-12-25T03:11:30.484Z,-5.20
2022-12-25T03:14:23.799Z,-5.10
2022-12-25T03:16:54.004Z,-5.20
2022-12-25T03:19:41.153Z,-5.30
2022-12-25T03:22:32.634Z,-5.30
2022-12-25T03:25:18.490Z,-5.30
2022-12-25T03:27:46.553Z,-5.20
2022-12-25T03:30:32.194Z,-5.30
2022-12-25T03:33:36.725Z,-5.40
2022-12-25T03:36:16.985Z,-5.30
2022-12-25T03:39:02.916Z,-5.40
2022-12-25T03:42:02.153Z,-5.40
2022-12-25T03:44:32.001Z,-5.30
2022-12-25T03:47:43.963Z,-5.40
2022-12-25T03:50:38.193Z,-5.40
2022-12-25T03:53:28.938Z,-5.40
2022-12-25T03:56:15.209Z,-5.50
2022-12-25T03:59:10.843Z,-5.40
2022-12-25T04:01:56.334Z,-5.50
2022-12-25T04:04:41.706Z,-5.50
2022-12-25T04:07:27.248Z,-5.40
2022-12-25T04:10:12.963Z,-5.40
2022-12-25T04:12:58.471Z,-5.40
2022-12-25T04:15:43.901Z,-5.30
2022-12-25T04:18:29.669Z,-5.30
2022-12-25T04:21:15.151Z,-5.20
2022-12-25T04:24:00.500Z,-5.20
2022-12-25T04:26:46.239Z,-5.20
2022-12-25T04:29:31.650Z,-5.20
2022-12-25T04:32:16.997Z,-5.40
2022-12-25T04:35:02.387Z,-5.50
2022-12-25T04:37:29.247Z,-5.50
2022-12-25T04:39:56.039Z,-5.40
2022-12-25T04:42:22.888Z,-5.40
2022-12-25T04:44:49.941Z,-5.40
2022-12-25T04:47:17.314Z,-5.50
2022-12-25T04:49:44.723Z,-5.40
2022-12-25T04:52:11.740Z,-5.40
2022-12-25T04:54:38.949Z,-5.50
2022-12-25T04:57:05.952Z,-5.50
2022-12-25T04:59:32.907Z,-5.60
2022-12-25T05:01:59.858Z,-5.60
2022-12-25T05:04:27.002Z,-5.60
2022-12-25T05:06:53.834Z,-5.60
2022-12-25T05:09:21.570Z,-5.60
2022-12-25T05:11:48.593Z,-5.60
2022-12-25T05:14:15.682Z,-5.70
2022-12-25T05:16:42.691Z,-5.60
2022-12-25T05:19:09.735Z,-5.60
2022-12-25T05:21:36.597Z,-5.60
2022-12-25T05:24:03.466Z,-5.60
2022-12-25T05:26:30.534Z,-5.70
2022-12-25T05:28:57.478Z,-5.70
2022-12-25T05:31:24.562Z,-5.70
2022-12-25T05:33:52.069Z,-5.70
2022-12-25T05:36:19.029Z,-5.80
2022-12-25T05:38:45.996Z,-5.80
2022-12-25T05:41:13.350Z,-5.80
2022-12-25T05:43:40.997Z,-5.80
2022-12-25T05:46:10.448Z,-5.80
2022-12-25T05:48:38.110Z,-5.90
2022-12-25T05:51:08.896Z,-5.90
2022-12-25T05:53:36.298Z,-5.90
2022-12-25T05:56:03.942Z,-6.00
2022-12-25T05:58:31.190Z,-6.00
2022-12-25T06:00:58.435Z,-6.00
2022-12-25T06:03:25.746Z,-6.10
2022-12-25T06:05:52.895Z,-6.10
2022-12-25T06:08:20.724Z,-6.00
2022-12-25T06:10:48.282Z,-6.10
2022-12-25T06:13:15.526Z,-6.10
2022-12-25T06:15:42.429Z,-6.00
2022-12-25T06:18:09.434Z,-6.00
2022-12-25T06:20:37.234Z,-6.10
2022-12-25T06:23:04.154Z,-6.00
2022-12-25T06:25:31.514Z,-6.00
2022-12-25T06:27:58.333Z,-6.00
2022-12-25T06:30:25.258Z,-5.90
2022-12-25T06:32:52.098Z,-5.90
2022-12-25T06:35:19.184Z,-5.80
2022-12-25T06:37:46.751Z,-5.80
2022-12-25T06:40:13.770Z,-5.80
2022-12-25T06:42:40.579Z,-5.80
2022-12-25T06:45:07.931Z,-5.70
2022-12-25T06:47:34.840Z,-5.70
2022-12-25T06:50:01.690Z,-5.70
2022-12-25T06:52:28.849Z,-5.70
2022-12-25T06:54:55.678Z,-5.80
2022-12-25T06:57:22.643Z,-5.70
2022-12-25T06:59:54.698Z,-5.70
2022-12-25T07:02:23.416Z,-5.70
2022-12-25T07:04:50.377Z,-5.60
2022-12-25T07:07:17.308Z,-5.50
2022-12-25T07:09:44.180Z,-5.50
2022-12-25T07:12:13.800Z,-5.50
2022-12-25T07:14:40.891Z,-5.50
2022-12-25T07:17:07.780Z,-5.50
2022-12-25T07:19:36.137Z,-5.40
2022-12-25T07:22:06.713Z,-5.40
2022-12-25T07:24:33.663Z,-5.40
2022-12-25T07:27:00.559Z,-5.30
2022-12-25T07:29:27.706Z,-5.30
2022-12-25T07:31:54.626Z,-5.30
2022-12-25T07:34:22.862Z,-5.30
2022-12-25T07:36:50.120Z,-5.20
2022-12-25T07:39:17.045Z,-5.30
2022-12-25T07:41:44.143Z,-5.20
2022-12-25T07:44:11.054Z,-5.30
2022-12-25T07:46:38.128Z,-5.20
2022-12-25T07:49:04.969Z,-5.20
2022-12-25T07:51:32.109Z,-5.20
2022-12-25T07:53:58.999Z,-5.30
2022-12-25T07:56:26.434Z,-5.30
2022-12-25T07:58:53.605Z,-5.20
2022-12-25T08:01:22.056Z,-5.30
2022-12-25T08:03:51.994Z,-5.30
2022-12-25T08:06:19.798Z,-5.20
2022-12-25T08:08:46.738Z,-5.20
2022-12-25T08:11:14.281Z,-5.10
2022-12-25T08:13:41.390Z,-5.10
2022-12-25T08:16:10.513Z,-5.10
2022-12-25T08:18:38.269Z,-5.00
2022-12-25T08:21:10.131Z,-5.00
2022-12-25T08:23:37.914Z,-4.90
2022-12-25T08:26:05.978Z,-4.90
2022-12-25T08:28:33.740Z,-4.80
2022-12-25T08:31:05.926Z,-4.80
2022-12-25T08:33:33.144Z,-4.80
2022-12-25T08:36:03.972Z,-4.70
2022-12-25T08:38:31.140Z,-4.70
2022-12-25T08:40:58.092Z,-4.60
2022-12-25T08:43:25.012Z,-4.60
2022-12-25T08:45:52.124Z,-4.70
2022-12-25T08:48:19.069Z,-4.60
2022-12-25T08:50:47.359Z,-4.70
2022-12-25T08:53:14.659Z,-4.60
2022-12-25T08:55:41.661Z,-4.60
2022-12-25T08:58:08.934Z,-4.60
2022-12-25T09:03:16.582Z,-4.60
2022-12-25T09:05:43.847Z,-4.50
2022-12-25T09:08:11.007Z,-4.50
2022-12-25T09:10:37.952Z,-4.40
2022-12-25T09:13:04.924Z,-4.40
2022-12-25T09:15:32.409Z,-4.40
2022-12-25T09:17:59.502Z,-4.40
2022-12-25T09:20:26.311Z,-4.30
2022-12-25T09:22:53.182Z,-4.30
2022-12-25T09:25:20.072Z,-4.30
2022-12-25T09:27:46.938Z,-4.30
2022-12-25T09:30:13.865Z,-4.30
2022-12-25T09:32:40.810Z,-4.30
2022-12-25T09:35:08.473Z,-4.20
2022-12-25T09:37:35.321Z,-4.20
2022-12-25T09:40:02.319Z,-4.20
2022-12-25T09:42:31.490Z,-4.10
2022-12-25T09:45:01.000Z,-4.10
2022-12-25T09:47:31.383Z,-4.00
2022-12-25T09:50:05.081Z,-4.00
2022-12-25T09:52:42.030Z,-4.00
2022-12-25T09:55:20.491Z,-4.00
2022-12-25T09:57:58.248Z,-4.00
2022-12-25T10:00:28.165Z,-4.00
2022-12-25T10:03:10.459Z,-3.90
2022-12-25T10:05:52.609Z,-3.80
2022-12-25T10:08:34.688Z,-3.80
2022-12-25T10:11:11.816Z,-3.70
2022-12-25T10:13:38.734Z,-3.70
2022-12-25T10:16:38.056Z,-3.60
2022-12-25T10:19:07.897Z,-3.60
2022-12-25T10:21:35.182Z,-3.50
2022-12-25T10:24:10.735Z,-3.40
2022-12-25T10:26:37.701Z,-3.40
2022-12-25T10:29:10.034Z,-3.40
2022-12-25T10:31:37.726Z,-3.30
2022-12-25T10:34:05.485Z,-3.30
2022-12-25T10:36:33.070Z,-3.30
2022-12-25T10:39:00.439Z,-3.30
2022-12-25T10:41:30.240Z,-3.20
2022-12-25T10:43:57.567Z,-3.20
2022-12-25T10:46:25.679Z,-3.20
2022-12-25T10:48:57.637Z,-3.20
2022-12-25T10:51:27.420Z,-3.00
2022-12-25T10:53:54.220Z,-3.00
2022-12-25T10:56:21.192Z,-3.00
2022-12-25T10:58:48.072Z,-3.00
2022-12-25T11:01:15.409Z,-3.00
2022-12-25T11:03:45.253Z,-2.90
2022-12-25T11:06:25.518Z,-2.90
2022-12-25T11:08:56.830Z,-2.80
2022-12-25T11:11:24.259Z,-2.80
2022-12-25T11:13:52.921Z,-2.70
2022-12-25T11:16:29.938Z,-2.70
2022-12-25T11:18:57.224Z,-2.70
2022-12-25T11:21:24.125Z,-2.60
2022-12-25T11:23:56.247Z,-2.60
2022-12-25T11:26:23.361Z,-2.50
2022-12-25T11:28:51.277Z,-2.50
2022-12-25T11:31:20.022Z,-2.50
2022-12-25T11:33:52.623Z,-2.40
2022-12-25T11:36:23.078Z,-2.40
2022-12-25T11:38:50.717Z,-2.40
2022-12-25T11:41:20.881Z,-2.30
2022-12-25T11:43:52.018Z,-2.20
2022-12-25T11:46:24.683Z,-2.20
2022-12-25T11:48:59.366Z,-2.20
2022-12-25T11:51:30.931Z,-2.10
2022-12-25T11:54:00.618Z,-2.10
2022-12-25T11:56:29.447Z,-2.10
2022-12-25T11:59:06.765Z,-2.10
2022-12-25T12:01:37.549Z,-2.00
2022-12-25T12:04:08.248Z,-1.90
2022-12-25T12:06:35.577Z,-1.90
2022-12-25T12:09:12.260Z,-1.90
2022-12-25T12:11:47.123Z,-1.80
2022-12-25T12:14:22.897Z,-1.90
2022-12-25T12:16:50.008Z,-1.90
2022-12-25T12:19:27.889Z,-1.90
2022-12-25T12:21:57.409Z,-1.90
2022-12-25T12:24:25.975Z,-1.80
2022-12-25T12:27:03.744Z,-1.80
2022-12-25T12:29:37.035Z,-1.70
2022-12-25T12:32:05.203Z,-1.70
2022-12-25T12:34:32.101Z,-1.60
2022-12-25T12:37:05.014Z,-1.60
2022-12-25T12:39:38.687Z,-1.60
2022-12-25T12:42:13.891Z,-1.60
2022-12-25T12:44:40.978Z,-1.60
2022-12-25T12:47:26.671Z,-1.60
2022-12-25T12:49:57.781Z,-1.60
2022-12-25T12:52:26.158Z,-1.60
2022-12-25T12:55:02.287Z,-1.50
2022-12-25T12:57:32.982Z,-1.60
2022-12-25T13:00:08.441Z,-1.50
2022-12-25T13:02:40.518Z,-1.60
2022-12-25T13:05:16.629Z,-1.50
2022-12-25T13:07:52.874Z,-1.50
2022-12-25T13:10:39.633Z,-1.50
2022-12-25T13:13:15.511Z,-1.50
2022-12-25T13:15:46.351Z,-1.50
2022-12-25T13:18:13.563Z,-1.50
2022-12-25T13:20:46.532Z,-1.40
2022-12-25T13:23:33.573Z,-1.40
2022-12-25T13:26:06.579Z,-1.50
2022-12-25T13:28:34.310Z,-1.40
2022-12-25T13:31:12.641Z,-1.40
2022-12-25T13:33:40.794Z,-1.50
2022-12-25T13:36:11.459Z,-1.50
2022-12-25T13:38:38.835Z,-1.60
2022-12-25T13:41:24.249Z,-1.50
2022-12-25T13:43:51.303Z,-1.50
2022-12-25T13:46:25.320Z,-1.50
2022-12-25T13:48:59.968Z,-1.50
2022-12-25T13:51:29.022Z,-1.50
2022-12-25T13:54:05.978Z,-1.50
2022-12-25T13:56:34.881Z,-1.50
2022-12-25T13:59:01.841Z,-1.50
2022-12-25T14:01:28.905Z,-1.50
2022-12-25T14:03:56.001Z,-1.60
2022-12-25T14:06:27.407Z,-1.60
2022-12-25T14:08:55.407Z,-1.60
2022-12-25T14:11:24.767Z,-1.60
2022-12-25T14:13:53.539Z,-1.60
2022-12-25T14:16:20.938Z,-1.70
2022-12-25T14:18:55.267Z,-1.70
2022-12-25T14:21:33.297Z,-1.70
2022-12-25T14:24:00.364Z,-1.70
2022-12-25T14:26:32.835Z,-1.70
2022-12-25T14:29:00.163Z,-1.70
2022-12-25T14:31:28.894Z,-1.70
2022-12-25T14:33:55.883Z,-1.70
2022-12-25T14:36:22.713Z,-1.70
2022-12-25T14:38:58.774Z,-1.70
2022-12-25T14:41:39.419Z,-1.70
2022-12-25T14:44:24.941Z,-1.70
2022-12-25T14:47:03.211Z,-1.70
2022-12-25T14:49:31.304Z,-1.70
2022-12-25T14:51:58.750Z,-1.70
2022-12-25T14:54:26.037Z,-1.70
2022-12-25T14:56:54.571Z,-1.60
2022-12-25T14:59:23.861Z,-1.60
2022-12-25T15:01:52.804Z,-1.60
2022-12-25T15:04:20.957Z,-1.60
2022-12-25T15:06:58.552Z,-1.60
2022-12-25T15:09:25.896Z,-1.50
2022-12-25T15:11:57.679Z,-1.50
2022-12-25T15:14:24.944Z,-1.50
2022-12-25T15:16:56.275Z,-1.50
2022-12-25T15:19:37.621Z,-1.40
2022-12-25T15:22:05.745Z,-1.40
2022-12-25T15:24:33.166Z,-1.30
2022-12-25T15:27:00.788Z,-1.30
2022-12-25T15:32:14.306Z,-1.20
2022-12-25T15:34:41.567Z,-1.10
2022-12-25T15:37:08.463Z,-1.00
2022-12-25T15:39:35.280Z,-0.90
2022-12-25T15:42:20.048Z,-0.80
2022-12-25T15:44:47.134Z,-0.80
2022-12-25T15:47:15.285Z,-0.70
2022-12-25T15:49:42.390Z,-0.60
2022-12-25T15:52:12.215Z,-0.40
2022-12-25T15:54:39.014Z,-0.30
2022-12-25T15:57:07.259Z,-0.20
2022-12-25T15:59:34.349Z,-0.20
2022-12-25T16:02:02.092Z,-0.10
2022-12-25T16:04:31.419Z,0.00
2022-12-25T16:06:58.763Z,0.10
2022-12-25T16:09:27.249Z,0.20
2022-12-25T16:11:54.098Z,0.30
2022-12-25T16:14:21.932Z,0.50
2022-12-25T16:16:48.889Z,0.60
2022-12-25T16:19:15.760Z,0.70
2022-12-25T16:21:44.359Z,0.90
2022-12-25T16:24:11.455Z,1.00
2022-12-25T16:26:38.673Z,1.10
2022-12-25T16:29:07.676Z,1.20
2022-12-25T16:31:35.292Z,1.30
2022-12-25T16:34:02.626Z,1.40
2022-12-25T16:36:29.942Z,1.50
2022-12-25T16:38:56.810Z,1.50
2022-12-25T16:41:24.353Z,1.60
2022-12-25T16:43:51.277Z,1.70
2022-12-25T16:46:19.453Z,1.80
2022-12-25T16:48:46.609Z,1.90
2022-12-25T16:51:14.621Z,1.90
2022-12-25T16:53:41.625Z,2.00
2022-12-25T16:56:16.383Z,2.00
2022-12-25T16:58:44.583Z,2.10
2022-12-25T17:01:12.376Z,2.20
2022-12-25T17:03:39.398Z,2.30
2022-12-25T17:06:13.995Z,2.30
2022-12-25T17:08:41.338Z,2.30
2022-12-25T17:11:08.303Z,2.40
2022-12-25T17:13:35.552Z,2.40
2022-12-25T17:16:11.605Z,2.50
2022-12-25T17:18:38.749Z,2.60
2022-12-25T17:21:05.896Z,2.60
2022-12-25T17:23:32.716Z,2.60
2022-12-25T17:26:02.920Z,2.70
2022-12-25T17:28:29.913Z,2.70
2022-12-25T17:31:02.687Z,2.70
2022-12-25T17:33:31.279Z,2.80
2022-12-25T17:36:03.929Z,2.80
2022-12-25T17:38:31.785Z,2.90
2022-12-25T17:40:59.670Z,3.00
2022-12-25T17:43:26.859Z,2.90
2022-12-25T17:45:53.723Z,2.90
2022-12-25T17:48:20.642Z,3.00
2022-12-25T17:50:47.616Z,3.00
2022-12-25T17:53:14.857Z,3.00
2022-12-25T17:55:41.850Z,3.00
2022-12-25T17:58:11.329Z,3.00
2022-12-25T18:00:38.201Z,3.00
2022-12-25T18:03:11.289Z,3.00
2022-12-25T18:05:38.906Z,3.00
2022-12-25T18:08:06.646Z,3.10
2022-12-25T18:10:37.581Z,3.10
2022-12-25T18:13:05.315Z,3.00
2022-12-25T18:15:32.644Z,3.10
2022-12-25T18:17:59.473Z,3.10
2022-12-25T18:20:26.733Z,3.10
2022-12-25T18:22:53.808Z,3.20
2022-12-25T18:25:20.715Z,3.20
2022-12-25T18:27:47.570Z,3.20
2022-12-25T18:30:14.580Z,3.30
2022-12-25T18:32:41.376Z,3.30
2022-12-25T18:35:09.244Z,3.20
2022-12-25T18:37:40.137Z,3.30
2022-12-25T18:40:07.714Z,3.30
2022-12-25T18:42:40.594Z,3.30
2022-12-25T18:45:08.590Z,3.30
2022-12-25T18:47:35.688Z,3.30
2022-12-25T18:50:02.552Z,3.30
2022-12-25T18:52:49.908Z,3.30
2022-12-25T18:55:16.437Z,3.30
2022-12-25T18:57:43.354Z,3.30
2022-12-25T19:00:12.394Z,3.30
2022-12-25T19:02:39.859Z,3.30
2022-12-25T19:05:07.132Z,3.30
2022-12-25T19:07:33.955Z,3.30
2022-12-25T19:10:00.880Z,3.40
2022-12-25T19:12:28.428Z,3.30
2022-12-25T19:14:55.651Z,3.40
2022-12-25T19:17:26.594Z,3.40
2022-12-25T19:19:58.335Z,3.50
2022-12-25T19:22:25.128Z,3.50
2022-12-25T19:24:52.060Z,3.50
2022-12-25T19:27:19.277Z,3.50
2022-12-25T19:29:46.412Z,3.50
2022-12-25T19:32:13.293Z,3.50
2022-12-25T19:34:40.063Z,3.50
2022-12-25T19:37:07.678Z,3.50
2022-12-25T19:39:34.564Z,3.50
2022-12-25T19:42:01.399Z,3.60
2022-12-25T19:44:28.380Z,3.50
2022-12-25T19:46:56.026Z,3.50
2022-12-25T19:49:22.863Z,3.60
2022-12-25T19:51:49.880Z,3.50
2022-12-25T19:54:17.367Z,3.50
2022-12-25T19:56:44.220Z,3.60
2022-12-25T19:59:11.874Z,3.60
2022-12-25T20:01:39.315Z,3.60
2022-12-25T20:04:09.900Z,3.70
2022-12-25T20:06:38.391Z,3.60
2022-12-25T20:09:06.640Z,3.60
2022-12-25T20:11:34.665Z,3.60
2022-12-25T20:14:01.793Z,3.60
2022-12-25T20:16:28.926Z,3.70
2022-12-25T20:18:56.900Z,3.70
2022-12-25T20:21:24.199Z,3.70
2022-12-25T20:23:52.088Z,3.70
2022-12-25T20:26:20.223Z,3.70
2022-12-25T20:28:47.340Z,3.70
2022-12-25T20:31:19.027Z,3.60
2022-12-25T20:33:46.205Z,3.70
2022-12-25T20:36:13.237Z,3.70
2022-12-25T20:38:40.566Z,3.70
2022-12-25T20:43:56.096Z,3.70
2022-12-25T20:46:23.201Z,3.70
2022-12-25T20:48:50.110Z,3.70
2022-12-25T20:51:18.302Z,3.70
2022-12-25T20:53:45.573Z,3.70
2022-12-25T20:56:13.452Z,3.70
2022-12-25T20:58:40.671Z,3.70
2022-12-25T21:01:08.595Z,3.70
2022-12-25T21:03:35.629Z,3.70
2022-12-25T21:06:03.543Z,3.60
2022-12-25T21:08:30.763Z,3.60
2022-12-25T21:11:00.985Z,3.60
2022-12-25T21:13:29.683Z,3.60
2022-12-25T21:15:57.401Z,3.60
2022-12-25T21:18:25.072Z,3.60
2022-12-25T21:20:53.349Z,3.60
2022-12-25T21:23:20.428Z,3.60
2022-12-25T21:25:48.006Z,3.60
2022-12-25T21:28:15.734Z,3.60
2022-12-25T21:30:43.409Z,3.60
2022-12-25T21:33:30.847Z,3.60
2022-12-25T21:36:04.823Z,3.70
2022-12-25T21:38:31.714Z,3.70
2022-12-25T21:41:02.668Z,3.60
2022-12-25T21:43:29.663Z,3.60
2022-12-25T21:45:56.763Z,3.60
2022-12-25T21:48:23.949Z,3.50
2022-12-25T21:51:09.998Z,3.60
2022-12-25T21:53:36.903Z,3.50
2022-12-25T21:56:04.215Z,3.60
2022-12-25T21:58:31.495Z,3.60
2022-12-25T22:01:02.174Z,3.70
2022-12-25T22:03:29.347Z,3.60
2022-12-25T22:06:21.152Z,3.60
2022-12-25T22:08:52.883Z,3.60
2022-12-25T22:11:38.302Z,3.60
2022-12-25T22:14:52.160Z,3.60
2022-12-25T22:17:29.523Z,3.60
2022-12-25T22:19:56.389Z,3.60
2022-12-25T22:22:24.289Z,3.60
2022-12-25T22:24:52.211Z,3.60
2022-12-25T22:27:19.570Z,3.70
2022-12-25T22:29:46.573Z,3.70
2022-12-25T22:32:14.629Z,3.70
2022-12-25T22:34:41.721Z,3.70
2022-12-25T22:37:10.559Z,3.70
2022-12-25T22:39:37.634Z,3.60
2022-12-25T22:42:04.573Z,3.60
2022-12-25T22:44:32.310Z,3.60
2022-12-25T22:46:59.688Z,3.60
2022-12-25T22:49:26.706Z,3.60
2022-12-25T22:51:53.963Z,3.60
2022-12-25T22:54:22.213Z,3.70
2022-12-25T22:56:50.575Z,3.70
2022-12-25T22:59:19.247Z,3.70
2022-12-25T23:01:46.586Z,3.70
2022-12-25T23:04:13.910Z,3.70
2022-12-25T23:06:40.839Z,3.60
2022-12-25T23:09:08.917Z,3.60
2022-12-25T23:11:36.492Z,3.60
2022-12-25T23:14:22.236Z,3.60
2022-12-25T23:16:49.440Z,3.60
2022-12-25T23:19:35.374Z,3.60
2022-12-25T23:22:20.943Z,3.60
2022-12-25T23:25:06.589Z,3.70
2022-12-25T23:27:33.875Z,3.70
2022-12-25T23:30:01.769Z,3.70
2022-12-25T23:32:28.860Z,3.70
2022-12-25T23:34:56.346Z,3.70
2022-12-25T23:37:23.373Z,3.70
2022-12-25T23:39:50.368Z,3.70
2022-12-25T23:42:17.624Z,3.70
2022-12-25T23:44:44.795Z,3.70
2022-12-25T23:47:12.198Z,3.70
2022-12-25T23:49:39.293Z,3.80
2022-12-25T23:52:15.556Z,3.80
2022-12-25T23:54:42.564Z,3.70
2022-12-25T23:57:09.619Z,3.70
2022-12-25T23:59:36.725Z,3.70
